Franklin, West Virginia
Current Conditions -  °F | °C
As of 5:15 AM on Friday 24 Oct 2014 (Local Time) from KW99 Reporting Station
Clear Clear  
Wind Chill: 40°   Ceiling: Unl
Heat Index: 40°   Visibility: 7mi
Dew Point: 39°   Wind: 3mph
Humidity: 93%   Direction: 60°ENE
Pressure: 30.05"   Gusts: NA
Location:  38.64°N, 79.33°W
Report Text: KW99 240915Z AUTO 06003KT 7SM CLR 05/04 A3005 RMK AO2 T00470037
Loading
Personal Weather Stations






























Interactive Weather Map New forecast layout! Learn more

10-Day Weather Forecast

Advertisements
Track Severe Weather on mobile